Heisson, Washington
Current Conditions -  °F | °C
As of 3:53 PM on Sunday 23 Nov 2014 (Local Time) from KVUO Reporting Station
Overcast Overcast  
Wind Chill: 51°   Ceiling: 4100
Heat Index: 51°   Visibility: 10mi
Dew Point: 47°   Wind: 0mph
Humidity: 86%   Direction: NA
Pressure: 30.26"   Gusts: NA
Location:  45.82°N, 122.49°W
Report Text: KVUO 232353Z AUTO 00000KT 10SM SCT032 OVC041 11/08 A3026 RMK AO2 RAE26 SLP248 P0001 60041 T01060083 10117 20100 53008
Loading
Personal Weather Stations






























Interactive Weather Map New forecast layout! Learn more

10-Day Weather Forecast

Advertisements
Track Severe Weather on mobile